createdAt,value
2019-06-26T00:00:11.214Z,24.4
2019-06-26T00:00:44.386Z,24.4
2019-06-26T00:01:17.586Z,24.4
2019-06-26T00:01:50.106Z,24.41
2019-06-26T00:02:22.489Z,24.41
2019-06-26T00:02:55.292Z,24.41
2019-06-26T00:03:28.324Z,24.41
2019-06-26T00:04:01.303Z,24.41
2019-06-26T00:04:34.267Z,24.41
2019-06-26T00:05:07.349Z,24.41
2019-06-26T00:05:39.707Z,24.42
2019-06-26T00:06:12.373Z,24.42
2019-06-26T00:06:45.345Z,24.42
2019-06-26T00:07:18.533Z,24.42
2019-06-26T00:07:51.526Z,24.43
2019-06-26T00:09:05.832Z,24.44
2019-06-26T00:09:38.306Z,24.46
2019-06-26T00:10:10.979Z,24.49
2019-06-26T00:10:44.780Z,24.5
2019-06-26T00:11:17.832Z,24.5
2019-06-26T00:11:50.295Z,24.49
2019-06-26T00:12:23.061Z,24.49
2019-06-26T00:12:55.532Z,24.49
2019-06-26T00:13:28.593Z,24.48
2019-06-26T00:14:01.588Z,24.48
2019-06-26T00:14:34.253Z,24.47
2019-06-26T00:15:11.608Z,24.47
2019-06-26T00:15:44.374Z,24.46
2019-06-26T00:16:17.254Z,24.47
2019-06-26T00:16:50.318Z,24.46
2019-06-26T00:17:22.884Z,24.45
2019-06-26T00:17:55.853Z,24.45
2019-06-26T00:18:28.432Z,24.45
2019-06-26T00:19:01.086Z,24.45
2019-06-26T00:19:33.453Z,24.45
2019-06-26T00:20:06.322Z,24.44
2019-06-26T00:20:40.720Z,24.44
2019-06-26T00:21:13.695Z,24.45
2019-06-26T00:21:46.877Z,24.45
2019-06-26T00:22:19.753Z,24.45
2019-06-26T00:22:52.733Z,24.45
2019-06-26T00:23:25.688Z,24.46
2019-06-26T00:23:57.926Z,24.46
2019-06-26T00:24:30.200Z,24.46
2019-06-26T00:25:02.968Z,24.46
2019-06-26T00:25:36.456Z,24.46
2019-06-26T00:26:09.425Z,24.47
2019-06-26T00:26:41.686Z,24.47
2019-06-26T00:27:14.758Z,24.47
2019-06-26T00:27:47.739Z,24.47
2019-06-26T00:28:20.601Z,24.46
2019-06-26T00:28:53.475Z,24.46
2019-06-26T00:29:26.653Z,24.45
2019-06-26T00:29:59.668Z,24.45
2019-06-26T00:30:33.823Z,24.46
2019-06-26T00:31:06.793Z,24.47
2019-06-26T00:31:39.764Z,24.48
2019-06-26T00:32:12.659Z,24.48
2019-06-26T00:32:45.611Z,24.48
2019-06-26T00:33:18.482Z,24.47
2019-06-26T00:33:51.453Z,24.47
2019-06-26T00:34:24.428Z,24.47
2019-06-26T00:34:57.447Z,24.46
2019-06-26T00:35:30.475Z,24.47
2019-06-26T00:36:03.348Z,24.48
2019-06-26T00:36:36.323Z,24.5
2019-06-26T00:37:09.083Z,24.51
2019-06-26T00:37:41.750Z,24.52
2019-06-26T00:38:14.727Z,24.52
2019-06-26T00:38:46.689Z,24.52
2019-06-26T00:39:19.553Z,24.51
2019-06-26T00:39:52.519Z,24.5
2019-06-26T00:40:25.093Z,24.49
2019-06-26T00:40:57.953Z,24.5
2019-06-26T00:41:30.522Z,24.51
2019-06-26T00:42:03.085Z,24.52
2019-06-26T00:42:35.742Z,24.54
2019-06-26T00:43:08.532Z,24.56
2019-06-26T00:43:42.722Z,24.56
2019-06-26T00:44:15.690Z,24.56
2019-06-26T00:44:48.669Z,24.55
2019-06-26T00:45:21.526Z,24.55
2019-06-26T00:45:53.802Z,24.55
2019-06-26T00:46:26.656Z,24.56
2019-06-26T00:46:59.216Z,24.57
2019-06-26T00:47:32.091Z,24.58
2019-06-26T00:48:05.060Z,24.59
2019-06-26T00:48:36.832Z,24.61
2019-06-26T00:49:09.782Z,24.62
2019-06-26T00:49:42.763Z,24.62
2019-06-26T00:50:15.620Z,24.62
2019-06-26T00:50:48.603Z,24.61
2019-06-26T00:51:21.367Z,24.61
2019-06-26T00:51:53.926Z,24.62
2019-06-26T00:52:27.512Z,24.65
2019-06-26T00:53:00.897Z,24.72
2019-06-26T00:53:33.884Z,24.79
2019-06-26T00:54:06.839Z,24.86
2019-06-26T00:54:39.716Z,24.93
2019-06-26T00:55:12.791Z,25.01
2019-06-26T00:55:46.680Z,25.07
2019-06-26T00:56:20.073Z,25.12
2019-06-26T00:56:53.363Z,25.16
2019-06-26T00:57:27.647Z,25.18
2019-06-26T00:57:59.902Z,25.19
2019-06-26T00:58:33.183Z,25.19
2019-06-26T00:59:06.772Z,25.19
2019-06-26T00:59:39.747Z,25.21
2019-06-26T01:00:12.305Z,25.23
2019-06-26T01:00:45.586Z,25.26
2019-06-26T01:01:21.219Z,25.28
2019-06-26T01:01:54.098Z,25.28
2019-06-26T01:02:27.180Z,25.27
2019-06-26T01:03:00.145Z,25.22
2019-06-26T01:03:33.112Z,25.17
2019-06-26T01:04:06.390Z,25.11
2019-06-26T01:04:39.404Z,25.05
2019-06-26T01:05:12.449Z,25
2019-06-26T01:05:44.744Z,24.96
2019-06-26T01:06:17.260Z,24.94
2019-06-26T01:06:50.236Z,24.91
2019-06-26T01:07:27.093Z,24.89
2019-06-26T01:07:59.674Z,24.87
2019-06-26T01:08:32.732Z,24.85
2019-06-26T01:09:05.716Z,24.83
2019-06-26T01:09:38.579Z,24.82
2019-06-26T01:10:11.348Z,24.81
2019-06-26T01:10:44.627Z,24.8
2019-06-26T01:11:17.596Z,24.79
2019-06-26T01:11:54.871Z,24.79
2019-06-26T01:12:27.848Z,24.79
2019-06-26T01:13:00.719Z,24.78
2019-06-26T01:13:33.912Z,24.76
2019-06-26T01:14:06.760Z,24.74
2019-06-26T01:14:39.325Z,24.73
2019-06-26T01:15:12.200Z,24.72
2019-06-26T01:15:45.174Z,24.71
2019-06-26T01:16:18.180Z,24.71
2019-06-26T01:16:51.219Z,24.73
2019-06-26T01:17:24.196Z,24.75
2019-06-26T01:17:57.366Z,24.78
2019-06-26T01:18:31.166Z,24.8
2019-06-26T01:19:04.241Z,24.82
2019-06-26T01:19:37.011Z,24.85
2019-06-26T01:20:09.982Z,24.87
2019-06-26T01:20:43.355Z,24.88
2019-06-26T01:21:16.342Z,24.89
2019-06-26T01:21:48.838Z,24.89
2019-06-26T01:22:21.061Z,24.9
2019-06-26T01:22:53.921Z,24.9
2019-06-26T01:23:26.791Z,24.9
2019-06-26T01:23:59.556Z,24.9
2019-06-26T01:24:32.220Z,24.9
2019-06-26T01:25:04.889Z,24.9
2019-06-26T01:25:38.171Z,24.9
2019-06-26T01:26:11.149Z,24.88
2019-06-26T01:26:44.525Z,24.87
2019-06-26T01:27:17.701Z,24.87
2019-06-26T01:27:51.185Z,24.87
2019-06-26T01:28:24.362Z,24.88
2019-06-26T01:28:57.234Z,24.9
2019-06-26T01:29:32.652Z,24.92
2019-06-26T01:30:06.982Z,24.93
2019-06-26T01:30:40.761Z,24.94
2019-06-26T01:31:13.742Z,24.96
2019-06-26T01:31:46.497Z,24.97
2019-06-26T01:32:19.373Z,24.98
2019-06-26T01:32:52.455Z,24.98
2019-06-26T01:33:25.418Z,24.98
2019-06-26T01:33:58.407Z,24.97
2019-06-26T01:34:31.371Z,24.96
2019-06-26T01:35:04.244Z,24.93
2019-06-26T01:35:37.579Z,24.9
2019-06-26T01:36:10.526Z,24.88
2019-06-26T01:36:43.362Z,24.85
2019-06-26T01:37:16.328Z,24.83
2019-06-26T01:37:49.406Z,24.82
2019-06-26T01:38:22.172Z,24.81
2019-06-26T01:38:55.147Z,24.81
2019-06-26T01:39:27.517Z,24.8
2019-06-26T01:40:00.385Z,24.78
2019-06-26T01:40:34.477Z,24.77
2019-06-26T01:41:07.152Z,24.75
2019-06-26T01:41:40.325Z,24.73
2019-06-26T01:42:13.187Z,24.72
2019-06-26T01:42:45.351Z,24.72
2019-06-26T01:43:17.813Z,24.7
2019-06-26T01:43:50.897Z,24.69
2019-06-26T01:44:23.341Z,24.67
2019-06-26T01:44:56.216Z,24.66
2019-06-26T01:45:28.982Z,24.65
2019-06-26T01:46:01.970Z,24.63
2019-06-26T01:46:34.830Z,24.62
2019-06-26T01:47:07.589Z,24.6
2019-06-26T01:47:40.500Z,24.59
2019-06-26T01:48:13.438Z,24.58
2019-06-26T01:48:46.200Z,24.58
2019-06-26T01:49:19.173Z,24.58
2019-06-26T01:49:52.157Z,24.57
2019-06-26T01:50:25.039Z,24.56
2019-06-26T01:50:57.580Z,24.56
2019-06-26T01:51:30.556Z,24.56
2019-06-26T01:52:03.630Z,24.56
2019-06-26T01:52:36.605Z,24.56
2019-06-26T01:53:10.503Z,24.56
2019-06-26T01:53:43.476Z,24.57
2019-06-26T01:54:16.689Z,24.58
2019-06-26T01:54:49.625Z,24.59
2019-06-26T01:55:22.489Z,24.59
2019-06-26T01:55:55.464Z,24.58
2019-06-26T01:56:28.432Z,24.57
2019-06-26T01:57:01.303Z,24.57
2019-06-26T01:57:34.190Z,24.57
2019-06-26T01:58:07.454Z,24.57
2019-06-26T01:58:39.822Z,24.57
2019-06-26T01:59:12.683Z,24.57
2019-06-26T01:59:45.464Z,24.57
2019-06-26T02:00:18.879Z,24.57
2019-06-26T02:00:51.917Z,24.57
2019-06-26T02:01:24.987Z,24.56
2019-06-26T02:01:57.443Z,24.55
2019-06-26T02:02:30.021Z,24.56
2019-06-26T02:03:02.691Z,24.57
2019-06-26T02:03:35.031Z,24.57
2019-06-26T02:04:07.811Z,24.57
2019-06-26T02:04:40.775Z,24.58
2019-06-26T02:05:13.235Z,24.58
2019-06-26T02:05:46.001Z,24.57
2019-06-26T02:06:18.212Z,24.57
2019-06-26T02:06:51.438Z,24.57
2019-06-26T02:07:24.613Z,24.57
2019-06-26T02:07:56.578Z,24.57
2019-06-26T02:08:29.558Z,24.57
2019-06-26T02:09:02.202Z,24.58
2019-06-26T02:09:35.893Z,24.58
2019-06-26T02:10:08.763Z,24.58
2019-06-26T02:10:42.552Z,24.6
2019-06-26T02:11:15.727Z,24.62
2019-06-26T02:11:49.429Z,24.64
2019-06-26T02:12:22.495Z,24.65
2019-06-26T02:12:55.164Z,24.65
2019-06-26T02:13:28.243Z,24.65
2019-06-26T02:14:01.243Z,24.64
2019-06-26T02:15:15.344Z,24.65
2019-06-26T02:15:48.628Z,24.67
2019-06-26T02:16:21.715Z,24.7
2019-06-26T02:16:54.781Z,24.72
2019-06-26T02:17:27.747Z,24.73
2019-06-26T02:18:00.324Z,24.73
2019-06-26T02:18:33.398Z,24.71
2019-06-26T02:19:07.396Z,24.7
2019-06-26T02:19:40.666Z,24.67
2019-06-26T02:20:13.439Z,24.66
2019-06-26T02:20:46.512Z,24.65
2019-06-26T02:21:19.786Z,24.65
2019-06-26T02:21:52.249Z,24.66
2019-06-26T02:22:25.026Z,24.67
2019-06-26T02:22:57.683Z,24.67
2019-06-26T02:23:30.150Z,24.66
2019-06-26T02:24:02.506Z,24.65
2019-06-26T02:24:35.274Z,24.62
2019-06-26T02:25:07.939Z,24.6
2019-06-26T02:25:40.715Z,24.58
2019-06-26T02:26:13.379Z,24.57
2019-06-26T02:26:45.729Z,24.56
2019-06-26T02:27:18.904Z,24.55
2019-06-26T02:27:52.082Z,24.55
2019-06-26T02:28:24.852Z,24.55
2019-06-26T02:28:57.412Z,24.56
2019-06-26T02:29:30.293Z,24.55
2019-06-26T02:30:03.270Z,24.54
2019-06-26T02:30:36.440Z,24.53
2019-06-26T02:31:09.098Z,24.52
2019-06-26T02:31:41.871Z,24.51
2019-06-26T02:32:14.843Z,24.5
2019-06-26T02:32:47.406Z,24.5
2019-06-26T02:33:20.479Z,24.5
2019-06-26T02:33:53.348Z,24.49
2019-06-26T02:34:26.221Z,24.49
2019-06-26T02:34:59.406Z,24.49
2019-06-26T02:35:32.189Z,24.49
2019-06-26T02:36:04.935Z,24.5
2019-06-26T02:36:37.403Z,24.5
2019-06-26T02:37:10.370Z,24.5
2019-06-26T02:37:43.135Z,24.5
2019-06-26T02:38:15.806Z,24.51
2019-06-26T02:38:48.994Z,24.52
2019-06-26T02:39:21.749Z,24.53
2019-06-26T02:39:54.616Z,24.53
2019-06-26T02:40:27.689Z,24.53
2019-06-26T02:41:00.681Z,24.54
2019-06-26T02:41:33.537Z,24.53
2019-06-26T02:42:06.722Z,24.53
2019-06-26T02:42:39.687Z,24.54
2019-06-26T02:43:12.658Z,24.54
2019-06-26T02:43:45.835Z,24.55
2019-06-26T02:44:18.617Z,24.56
2019-06-26T02:44:54.021Z,24.56
2019-06-26T02:45:27.623Z,24.56
2019-06-26T02:46:00.697Z,24.57
2019-06-26T02:46:33.270Z,24.58
2019-06-26T02:47:17.994Z,24.59
2019-06-26T02:47:52.832Z,24.6
2019-06-26T02:48:26.103Z,24.62
2019-06-26T02:48:58.879Z,24.64
2019-06-26T02:49:31.538Z,24.65
2019-06-26T02:50:04.510Z,24.65
2019-06-26T02:50:37.692Z,24.65
2019-06-26T02:51:11.150Z,24.64
2019-06-26T02:51:44.317Z,24.64
2019-06-26T02:52:17.030Z,24.65
2019-06-26T02:52:49.990Z,24.67
2019-06-26T02:53:22.875Z,24.68
2019-06-26T02:53:55.840Z,24.68
2019-06-26T02:54:29.529Z,24.67
2019-06-26T02:55:03.320Z,24.66
2019-06-26T02:55:35.740Z,24.65
2019-06-26T02:56:08.750Z,24.65
2019-06-26T02:56:41.313Z,24.65
2019-06-26T02:57:13.679Z,24.65
2019-06-26T02:57:46.440Z,24.64
2019-06-26T02:58:19.412Z,24.65
2019-06-26T02:58:52.386Z,24.67
2019-06-26T02:59:24.967Z,24.69
2019-06-26T02:59:57.928Z,24.72
2019-06-26T03:00:30.890Z,24.75
2019-06-26T03:01:03.863Z,24.77
2019-06-26T03:01:36.026Z,24.8
2019-06-26T03:02:09.198Z,24.82
2019-06-26T03:02:41.457Z,24.84
2019-06-26T03:03:14.628Z,24.85
2019-06-26T03:03:47.500Z,24.86
2019-06-26T03:04:20.687Z,24.88
2019-06-26T03:04:53.648Z,24.89
2019-06-26T03:05:26.419Z,24.89
2019-06-26T03:05:59.398Z,24.88
2019-06-26T03:06:32.260Z,24.87
2019-06-26T03:07:05.347Z,24.86
2019-06-26T03:07:38.223Z,24.86
2019-06-26T03:08:11.197Z,24.86
2019-06-26T03:09:24.719Z,24.86
2019-06-26T03:09:58.197Z,24.88
2019-06-26T03:10:31.064Z,24.89
2019-06-26T03:11:03.835Z,24.88
2019-06-26T03:11:36.941Z,24.87
2019-06-26T03:12:09.988Z,24.87
2019-06-26T03:12:43.054Z,24.87
2019-06-26T03:13:16.132Z,24.87
2019-06-26T03:13:49.207Z,24.87
2019-06-26T03:14:22.073Z,24.86
2019-06-26T03:15:08.041Z,24.84
2019-06-26T03:15:41.911Z,24.82
2019-06-26T03:16:22.600Z,24.82
2019-06-26T03:16:55.363Z,24.83
2019-06-26T03:17:28.847Z,24.84
2019-06-26T03:18:01.721Z,24.84
2019-06-26T03:18:34.808Z,24.85
2019-06-26T03:19:07.770Z,24.86
2019-06-26T03:19:40.635Z,24.86
2019-06-26T03:20:13.716Z,24.85
2019-06-26T03:20:49.654Z,24.83
2019-06-26T03:21:25.187Z,24.81
2019-06-26T03:21:58.160Z,24.79
2019-06-26T03:22:30.933Z,24.78
2019-06-26T03:23:03.804Z,24.77
2019-06-26T03:23:36.568Z,24.76
2019-06-26T03:24:09.452Z,24.75
2019-06-26T03:24:42.410Z,24.75
2019-06-26T03:25:15.392Z,24.74
2019-06-26T03:25:48.257Z,24.72
2019-06-26T03:26:21.330Z,24.71
2019-06-26T03:26:55.226Z,24.69
2019-06-26T03:27:27.903Z,24.69
2019-06-26T03:28:00.453Z,24.69
2019-06-26T03:28:33.018Z,24.7
2019-06-26T03:29:06.402Z,24.71
2019-06-26T03:29:38.974Z,24.72
2019-06-26T03:30:11.934Z,24.73
2019-06-26T03:30:45.323Z,24.74
2019-06-26T03:31:17.779Z,24.75
2019-06-26T03:31:50.040Z,24.76
2019-06-26T03:32:22.601Z,24.76
2019-06-26T03:32:55.364Z,24.76
2019-06-26T03:33:28.269Z,24.76
2019-06-26T03:34:01.417Z,24.77
2019-06-26T03:34:34.283Z,24.77
2019-06-26T03:35:07.165Z,24.77
2019-06-26T03:35:40.801Z,24.77
2019-06-26T03:36:14.122Z,24.77
2019-06-26T03:36:46.999Z,24.78
2019-06-26T03:37:20.094Z,24.78
2019-06-26T03:37:52.633Z,24.77
2019-06-26T03:38:25.402Z,24.76
2019-06-26T03:38:57.868Z,24.74
2019-06-26T03:39:30.736Z,24.72
2019-06-26T03:40:03.513Z,24.72
2019-06-26T03:40:36.713Z,24.72
2019-06-26T03:41:09.556Z,24.73
2019-06-26T03:42:23.990Z,24.75
2019-06-26T03:42:56.759Z,24.78
2019-06-26T03:43:29.226Z,24.8
2019-06-26T03:44:02.293Z,24.81
2019-06-26T03:44:35.170Z,24.81
2019-06-26T03:45:21.376Z,24.79
2019-06-26T03:45:55.517Z,24.77
2019-06-26T03:46:28.268Z,24.76
2019-06-26T03:47:00.785Z,24.76
2019-06-26T03:47:33.648Z,24.77
2019-06-26T03:48:06.214Z,24.76
2019-06-26T03:48:39.082Z,24.76
2019-06-26T03:49:12.155Z,24.76
2019-06-26T03:49:45.032Z,24.74
2019-06-26T03:50:17.999Z,24.72
2019-06-26T03:50:50.973Z,24.7
2019-06-26T03:51:23.853Z,24.68
2019-06-26T03:51:56.918Z,24.67
2019-06-26T03:52:29.702Z,24.66
2019-06-26T03:53:02.661Z,24.66
2019-06-26T03:53:35.124Z,24.67
2019-06-26T03:54:07.990Z,24.68
2019-06-26T03:54:41.990Z,24.68
2019-06-26T03:55:14.859Z,24.68
2019-06-26T03:55:47.728Z,24.68
2019-06-26T03:56:20.601Z,24.68
2019-06-26T03:56:53.584Z,24.67
2019-06-26T03:57:26.046Z,24.66
2019-06-26T03:57:58.498Z,24.65
2019-06-26T03:58:31.464Z,24.64
2019-06-26T03:59:45.503Z,24.65
2019-06-26T04:00:18.675Z,24.68
2019-06-26T04:00:55.581Z,24.7
2019-06-26T04:01:28.644Z,24.71
2019-06-26T04:02:01.916Z,24.71
2019-06-26T04:02:34.975Z,24.71
2019-06-26T04:03:48.700Z,24.71
2019-06-26T04:04:21.777Z,24.73
2019-06-26T04:04:54.750Z,24.75
2019-06-26T04:05:27.010Z,24.77
2019-06-26T04:05:59.877Z,24.77
2019-06-26T04:06:32.644Z,24.76
2019-06-26T04:07:05.627Z,24.75
2019-06-26T04:07:38.490Z,24.73
2019-06-26T04:08:11.463Z,24.73
2019-06-26T04:08:44.142Z,24.72
2019-06-26T04:09:17.001Z,24.7
2019-06-26T04:09:49.460Z,24.69
2019-06-26T04:10:22.332Z,24.68
2019-06-26T04:10:55.302Z,24.67
2019-06-26T04:11:28.273Z,24.67
2019-06-26T04:12:01.247Z,24.68
2019-06-26T04:12:34.947Z,24.69
2019-06-26T04:13:07.295Z,24.72
2019-06-26T04:13:40.273Z,24.75
2019-06-26T04:14:13.242Z,24.77
2019-06-26T04:14:46.111Z,24.8
2019-06-26T04:15:18.777Z,24.82
2019-06-26T04:15:51.655Z,24.84
2019-06-26T04:16:24.727Z,24.87
2019-06-26T04:16:57.796Z,24.89
2019-06-26T04:17:30.877Z,24.9
2019-06-26T04:18:03.758Z,24.9
2019-06-26T04:18:36.202Z,24.9
2019-06-26T04:19:09.075Z,24.89
2019-06-26T04:19:41.948Z,24.89
2019-06-26T04:20:14.916Z,24.89
2019-06-26T04:20:47.526Z,24.88
2019-06-26T04:21:20.863Z,24.87
2019-06-26T04:21:53.536Z,24.86
2019-06-26T04:22:26.412Z,24.85
2019-06-26T04:22:59.269Z,24.84
2019-06-26T04:23:32.362Z,24.82
2019-06-26T04:24:05.111Z,24.81
2019-06-26T04:24:38.398Z,24.79
2019-06-26T04:25:11.469Z,24.79
2019-06-26T04:25:43.825Z,24.78
2019-06-26T04:26:16.702Z,24.77
2019-06-26T04:26:49.872Z,24.76
2019-06-26T04:27:22.589Z,24.76
2019-06-26T04:27:55.511Z,24.76
2019-06-26T04:28:28.485Z,24.76
2019-06-26T04:29:01.664Z,24.76
2019-06-26T04:29:34.123Z,24.76
2019-06-26T04:30:06.219Z,24.76
2019-06-26T04:30:39.559Z,24.75
2019-06-26T04:31:12.633Z,24.75
2019-06-26T04:31:45.715Z,24.75
2019-06-26T04:32:18.787Z,24.74
2019-06-26T04:32:51.243Z,24.73
2019-06-26T04:33:24.116Z,24.72
2019-06-26T04:33:56.782Z,24.71
2019-06-26T04:34:29.760Z,24.69
2019-06-26T04:35:02.845Z,24.69
2019-06-26T04:35:36.314Z,24.69
2019-06-26T04:36:09.179Z,24.7
2019-06-26T04:36:42.767Z,24.71
2019-06-26T04:37:15.235Z,24.71
2019-06-26T04:37:48.105Z,24.71
2019-06-26T04:38:20.296Z,24.7
2019-06-26T04:38:53.130Z,24.7
2019-06-26T04:39:25.999Z,24.69
2019-06-26T04:39:58.871Z,24.69
2019-06-26T04:40:31.941Z,24.69
2019-06-26T04:41:04.914Z,24.69
2019-06-26T04:41:37.883Z,24.69
2019-06-26T04:42:10.863Z,24.7
2019-06-26T04:42:43.833Z,24.71
2019-06-26T04:43:16.806Z,24.71
2019-06-26T04:43:49.881Z,24.71
2019-06-26T04:44:22.651Z,24.72
2019-06-26T04:44:55.518Z,24.73
2019-06-26T04:45:28.328Z,24.73
2019-06-26T04:46:00.953Z,24.72
2019-06-26T04:46:33.371Z,24.72
2019-06-26T04:47:06.280Z,24.72
2019-06-26T04:47:39.050Z,24.73
2019-06-26T04:48:12.025Z,24.74
2019-06-26T04:48:44.696Z,24.74
2019-06-26T04:49:17.662Z,24.75
2019-06-26T04:49:50.945Z,24.75
2019-06-26T04:50:27.703Z,24.76
2019-06-26T04:51:00.484Z,24.78
2019-06-26T04:51:33.862Z,24.8
2019-06-26T04:52:06.518Z,24.82
2019-06-26T04:52:38.901Z,24.82
2019-06-26T04:53:12.267Z,24.83
2019-06-26T04:53:45.240Z,24.83
2019-06-26T04:54:18.518Z,24.84
2019-06-26T04:54:51.450Z,24.84
2019-06-26T04:55:25.171Z,24.85
2019-06-26T04:55:58.190Z,24.86
2019-06-26T04:56:30.827Z,24.87
2019-06-26T04:57:03.695Z,24.88
2019-06-26T04:57:36.755Z,24.88
2019-06-26T04:58:09.526Z,24.89
2019-06-26T04:58:42.508Z,24.9
2019-06-26T04:59:15.675Z,24.91
2019-06-26T04:59:48.651Z,24.93
2019-06-26T05:00:21.943Z,24.94
2019-06-26T05:00:55.415Z,24.96
2019-06-26T05:01:27.881Z,24.97
2019-06-26T05:02:01.201Z,24.99
2019-06-26T05:02:34.029Z,25.01
2019-06-26T05:03:06.691Z,25.04
2019-06-26T05:03:39.571Z,25.08
2019-06-26T05:04:12.739Z,25.12
2019-06-26T05:04:45.713Z,25.15
2019-06-26T05:05:18.689Z,25.19
2019-06-26T05:05:50.669Z,25.23
2019-06-26T05:06:23.196Z,25.26
2019-06-26T05:06:56.989Z,25.29
2019-06-26T05:07:32.839Z,25.31
2019-06-26T05:08:05.920Z,25.34
2019-06-26T05:08:38.983Z,25.35
2019-06-26T05:09:11.861Z,25.35
2019-06-26T05:09:44.625Z,25.34
2019-06-26T05:10:17.490Z,25.33
2019-06-26T05:10:50.976Z,25.33
2019-06-26T05:11:23.540Z,25.32
2019-06-26T05:11:56.521Z,25.3
2019-06-26T05:12:29.276Z,25.29
2019-06-26T05:13:02.160Z,25.27
2019-06-26T05:13:34.779Z,25.25
2019-06-26T05:14:07.377Z,25.23
2019-06-26T05:14:40.353Z,25.22
2019-06-26T05:15:13.425Z,25.22
2019-06-26T05:15:46.499Z,25.22
2019-06-26T05:16:20.500Z,25.22
2019-06-26T05:16:53.165Z,25.22
2019-06-26T05:17:26.543Z,25.23
2019-06-26T05:17:59.627Z,25.23
2019-06-26T05:18:32.623Z,25.22
2019-06-26T05:19:06.591Z,25.22
2019-06-26T05:19:39.463Z,25.22
2019-06-26T05:20:12.333Z,25.21
2019-06-26T05:20:45.824Z,25.2
2019-06-26T05:21:19.814Z,25.22
2019-06-26T05:21:52.392Z,25.24
2019-06-26T05:22:25.862Z,25.28
2019-06-26T05:22:58.849Z,25.3
2019-06-26T05:23:31.711Z,25.3
2019-06-26T05:24:04.786Z,25.3
2019-06-26T05:24:37.859Z,25.28
2019-06-26T05:25:10.823Z,25.26
2019-06-26T05:25:43.491Z,25.23
2019-06-26T05:26:15.952Z,25.21
2019-06-26T05:26:48.822Z,25.21
2019-06-26T05:27:21.903Z,25.21
2019-06-26T05:27:54.970Z,25.21
2019-06-26T05:28:27.944Z,25.21
2019-06-26T05:29:01.032Z,25.2
2019-06-26T05:29:33.910Z,25.2
2019-06-26T05:30:06.761Z,25.18
2019-06-26T05:30:41.374Z,25.17
2019-06-26T05:31:13.936Z,25.17
2019-06-26T05:31:47.119Z,25.17
2019-06-26T05:32:20.088Z,25.17
2019-06-26T05:32:53.162Z,25.17
2019-06-26T05:33:25.937Z,25.17
2019-06-26T05:33:58.708Z,25.17
2019-06-26T05:34:31.879Z,25.17
2019-06-26T05:35:05.086Z,25.18
2019-06-26T05:35:38.843Z,25.19
2019-06-26T05:36:11.823Z,25.21
2019-06-26T05:36:44.900Z,25.23
2019-06-26T05:37:17.869Z,25.25
2019-06-26T05:37:50.969Z,25.27
2019-06-26T05:38:23.917Z,25.29
2019-06-26T05:38:56.996Z,25.32
2019-06-26T05:39:29.777Z,25.35
2019-06-26T05:40:02.972Z,25.37
2019-06-26T05:40:47.312Z,25.39
2019-06-26T05:41:31.948Z,25.43
2019-06-26T05:42:06.725Z,25.48
2019-06-26T05:42:39.847Z,25.5
2019-06-26T05:43:14.782Z,25.51
2019-06-26T05:43:52.129Z,25.52
2019-06-26T05:44:25.705Z,25.53
2019-06-26T05:44:58.818Z,25.54
2019-06-26T05:45:31.982Z,25.56
2019-06-26T05:46:05.028Z,25.57
2019-06-26T05:46:38.343Z,25.57
2019-06-26T05:47:13.670Z,25.58
2019-06-26T05:47:47.143Z,25.6
2019-06-26T05:48:20.231Z,25.62
2019-06-26T05:48:54.504Z,25.63
2019-06-26T05:50:11.408Z,25.63
2019-06-26T05:50:52.180Z,25.64
2019-06-26T05:51:25.066Z,25.66
2019-06-26T05:52:02.142Z,25.67
2019-06-26T05:52:35.915Z,25.68
2019-06-26T05:53:15.621Z,25.7
2019-06-26T05:53:48.808Z,25.7
2019-06-26T05:54:25.897Z,25.71
2019-06-26T05:54:58.484Z,25.72
2019-06-26T05:55:31.934Z,25.72
2019-06-26T05:56:10.307Z,25.72
2019-06-26T05:56:45.249Z,25.71
2019-06-26T05:57:18.305Z,25.7
2019-06-26T05:57:51.338Z,25.69
2019-06-26T05:58:31.878Z,25.67
2019-06-26T05:59:05.214Z,25.65
2019-06-26T05:59:37.680Z,25.65
2019-06-26T06:00:11.168Z,25.65
2019-06-26T06:00:44.023Z,25.65
2019-06-26T06:01:18.230Z,25.64
2019-06-26T06:01:51.926Z,25.64
2019-06-26T06:02:27.742Z,25.63
2019-06-26T06:03:00.151Z,25.63
2019-06-26T06:03:32.985Z,25.63
2019-06-26T06:04:05.295Z,25.62
2019-06-26T06:04:38.526Z,25.6
2019-06-26T06:05:12.549Z,25.58
2019-06-26T06:05:44.984Z,25.55
2019-06-26T06:06:18.103Z,25.53
2019-06-26T06:06:50.884Z,25.52
2019-06-26T06:07:34.038Z,25.5
2019-06-26T06:08:10.187Z,25.49
2019-06-26T06:08:43.366Z,25.48
2019-06-26T06:09:19.009Z,25.48
2019-06-26T06:09:52.581Z,25.48
2019-06-26T06:10:25.351Z,25.48
2019-06-26T06:10:58.486Z,25.47
2019-06-26T06:11:31.354Z,25.46
2019-06-26T06:12:03.595Z,25.45
2019-06-26T06:12:36.216Z,25.43
2019-06-26T06:13:09.299Z,25.41
2019-06-26T06:13:42.672Z,25.39
2019-06-26T06:14:15.646Z,25.38
2019-06-26T06:14:48.926Z,25.37
2019-06-26T06:15:22.238Z,25.37
2019-06-26T06:15:55.281Z,25.36
2019-06-26T06:16:28.156Z,25.36
2019-06-26T06:17:02.067Z,25.35
2019-06-26T06:17:34.514Z,25.34
2019-06-26T06:18:07.724Z,25.34
2019-06-26T06:18:40.354Z,25.34
2019-06-26T06:19:13.239Z,25.35
2019-06-26T06:19:46.096Z,25.35
2019-06-26T06:20:19.169Z,25.36
2019-06-26T06:20:58.336Z,25.36
2019-06-26T06:21:31.986Z,25.36
2019-06-26T06:22:05.049Z,25.37
2019-06-26T06:22:37.712Z,25.38
2019-06-26T06:23:10.607Z,25.39
2019-06-26T06:23:43.972Z,25.39
2019-06-26T06:24:16.948Z,25.38
2019-06-26T06:24:49.917Z,25.37
2019-06-26T06:25:23.097Z,25.36
2019-06-26T06:25:56.061Z,25.36
2019-06-26T06:26:29.174Z,25.37
2019-06-26T06:27:02.421Z,25.37
2019-06-26T06:27:35.089Z,25.37
2019-06-26T06:28:07.951Z,25.38
2019-06-26T06:28:40.931Z,25.39
2019-06-26T06:29:13.801Z,25.39
2019-06-26T06:29:46.261Z,25.39
2019-06-26T06:30:18.719Z,25.39
2019-06-26T06:30:51.383Z,25.38
2019-06-26T06:31:24.260Z,25.37
2019-06-26T06:31:56.920Z,25.37
2019-06-26T06:32:29.381Z,25.37
2019-06-26T06:33:48.397Z,25.37
2019-06-26T06:34:21.626Z,25.39
2019-06-26T06:34:54.383Z,25.43
2019-06-26T06:35:27.051Z,25.45
2019-06-26T06:35:59.818Z,25.45
2019-06-26T06:36:32.991Z,25.45
2019-06-26T06:37:05.867Z,25.44
2019-06-26T06:37:38.837Z,25.42
2019-06-26T06:38:11.807Z,25.41
2019-06-26T06:38:44.794Z,25.41
2019-06-26T06:39:17.776Z,25.42
2019-06-26T06:39:50.832Z,25.42
2019-06-26T06:40:23.394Z,25.42
2019-06-26T06:40:55.884Z,25.41
2019-06-26T06:41:28.514Z,25.42
2019-06-26T06:42:01.392Z,25.42
2019-06-26T06:42:34.881Z,25.42
2019-06-26T06:43:07.336Z,25.42
2019-06-26T06:43:40.023Z,25.41
2019-06-26T06:44:13.094Z,25.41
2019-06-26T06:44:46.771Z,25.41
2019-06-26T06:45:19.846Z,25.42
2019-06-26T06:45:53.113Z,25.43
2019-06-26T06:46:27.623Z,25.45
2019-06-26T06:47:04.120Z,25.46
2019-06-26T06:47:41.779Z,25.48
2019-06-26T06:48:17.459Z,25.5
2019-06-26T06:48:50.273Z,25.53
2019-06-26T06:49:23.167Z,25.55
2019-06-26T06:49:56.330Z,25.55
2019-06-26T06:50:29.092Z,25.54
2019-06-26T06:51:01.949Z,25.53
2019-06-26T06:52:16.807Z,25.51
2019-06-26T06:52:49.886Z,25.52
2019-06-26T06:53:22.758Z,25.56
2019-06-26T06:53:55.854Z,25.59
2019-06-26T06:54:28.605Z,25.6
2019-06-26T06:55:01.606Z,25.62
2019-06-26T06:55:35.664Z,25.61
2019-06-26T06:56:49.666Z,25.61
2019-06-26T06:57:23.714Z,25.64
2019-06-26T06:57:56.985Z,25.65
2019-06-26T06:58:30.440Z,25.65
2019-06-26T06:59:04.079Z,25.66
2019-06-26T06:59:36.651Z,25.66
2019-06-26T07:00:10.644Z,25.67
2019-06-26T07:00:43.836Z,25.66
2019-06-26T07:01:16.164Z,25.65
2019-06-26T07:01:49.540Z,25.65
2019-06-26T07:02:23.465Z,25.64
2019-06-26T07:02:56.611Z,25.64
2019-06-26T07:03:29.580Z,25.66
2019-06-26T07:04:02.523Z,25.67
2019-06-26T07:04:35.628Z,25.67
2019-06-26T07:05:09.078Z,25.66
2019-06-26T07:05:55.637Z,25.67
2019-06-26T07:06:28.677Z,25.71
2019-06-26T07:07:01.494Z,25.75
2019-06-26T07:07:34.315Z,25.76
2019-06-26T07:08:08.507Z,25.77
2019-06-26T07:08:41.315Z,25.77
2019-06-26T07:09:14.766Z,25.76
2019-06-26T07:09:48.257Z,25.74
2019-06-26T07:10:20.620Z,25.73
2019-06-26T07:10:53.699Z,25.73
2019-06-26T07:11:27.431Z,25.74
2019-06-26T07:12:00.439Z,25.75
2019-06-26T07:12:36.695Z,25.76
2019-06-26T07:13:11.769Z,25.78
2019-06-26T07:13:45.004Z,25.83
2019-06-26T07:14:18.083Z,25.86
2019-06-26T07:14:50.651Z,25.88
2019-06-26T07:15:23.640Z,25.89
2019-06-26T07:15:56.845Z,25.9